Time;durP1;ratioP1;P1;durP2;ratioP2;P2;SDS_P1;SDS_P2;PMS_P1;PMS_P2;Temp;Humidity;BMP_temperature;BMP_pressure;BME280_temperature;BME280_humidity;BME280_pressure;Samples;Min_cycle;Max_cycle;Signal;HPM_P1;HPM_P2
2024/02/25 00:01:11;;;;;;;2.90;2.13;;;;;;;15.52;85.39;97310.94;4968558;28;20510;-80
2024/02/25 00:04:49;;;;;;;5.80;2.13;;;;;;;15.51;84.37;97303.81;4971876;28;20089;-81
2024/02/25 00:08:15;;;;;;;3.05;1.92;;;;;;;15.45;82.91;97310.56;4952421;29;20372;-80
2024/02/25 00:11:52;;;;;;;3.17;2.10;;;;;;;15.48;86.33;97321.13;4913050;29;20039;-80
2024/02/25 00:15:20;;;;;;;3.72;1.95;;;;;;;15.34;87.61;97332.19;4911808;29;20063;-80
2024/02/25 00:22:29;;;;;;;4.28;1.70;;;;;;;15.25;83.98;97327.56;4890091;29;20512;-79
2024/02/25 00:26:29;;;;;;;4.03;2.20;;;;;;;15.34;85.58;97332.19;4893169;29;20507;-80
2024/02/25 00:30:12;;;;;;;4.20;2.20;;;;;;;15.38;84.61;97322.84;4892994;29;20168;-80
2024/02/25 00:33:40;;;;;;;4.00;1.95;;;;;;;15.40;83.20;97325.41;4895157;29;20037;-79
2024/02/25 00:37:06;;;;;;;3.67;2.28;;;;;;;15.34;84.64;97318.72;4894196;29;20041;-80
2024/02/25 00:40:39;;;;;;;4.78;2.45;;;;;;;15.27;87.93;97322.03;4890159;29;20040;-79
2024/02/25 00:44:24;;;;;;;5.43;3.00;;;;;;;15.15;88.78;97318.56;4930896;29;20147;-79
2024/02/25 00:47:28;;;;;;;;;;;;;;;15.07;97.44;97339.91;4923519;29;20127;-80
2024/02/25 00:50:39;;;;;;;8.50;4.72;;;;;;;14.83;100.00;97340.06;4961591;28;19913;-79
2024/02/25 00:54:30;;;;;;;11.20;4.60;;;;;;;14.59;100.00;97342.94;4940342;29;20043;-80
2024/02/25 00:58:07;;;;;;;10.85;5.68;;;;;;;14.38;100.00;97333.91;4903886;29;20048;-80
2024/02/25 01:01:52;;;;;;;13.10;5.70;;;;;;;14.21;100.00;97342.47;4939993;28;20085;-79
2024/02/25 01:05:21;;;;;;;15.02;6.80;;;;;;;13.85;100.00;97340.84;4956375;28;20045;-80
2024/02/25 01:12:33;;;;;;;10.82;6.25;;;;;;;13.51;100.00;97365.91;4952534;28;20042;-80
2024/02/25 01:16:05;;;;;;;12.77;7.00;;;;;;;13.44;100.00;97368.22;4934961;29;20051;-80
2024/02/25 01:19:39;;;;;;;14.65;6.35;;;;;;;13.37;100.00;97367.00;4935031;29;20035;-80
2024/02/25 01:23:21;;;;;;;9.63;5.70;;;;;;;13.31;100.00;97372.81;4915808;29;20448;-80
2024/02/25 01:26:53;;;;;;;10.52;5.95;;;;;;;13.25;100.00;97372.44;4971619;28;20041;-79
2024/02/25 01:30:36;;;;;;;11.07;5.10;;;;;;;13.26;100.00;97374.97;4940602;29;20139;-80
2024/02/25 01:40:55;;;;;;;10.95;5.63;;;;;;;13.17;100.00;97375.69;4959497;28;20038;-80
2024/02/25 01:44:23;;;;;;;14.90;5.60;;;;;;;13.16;100.00;97373.13;4956351;28;20034;-80
2024/02/25 01:54:55;;;;;;;10.93;6.28;;;;;;;13.16;100.00;97371.31;4936687;29;20098;-81
2024/02/25 01:58:37;;;;;;;12.95;6.45;;;;;;;13.24;100.00;97379.63;4936483;29;20062;-81
2024/02/25 02:02:15;;;;;;;11.68;5.28;;;;;;;13.27;100.00;97382.09;4945257;29;20515;-79
2024/02/25 02:05:50;;;;;;;11.88;5.63;;;;;;;13.32;100.00;97377.22;4948242;29;20040;-80
2024/02/25 02:09:30;;;;;;;12.45;6.22;;;;;;;13.33;100.00;97370.00;4986631;28;20418;-79
2024/02/25 02:13:08;;;;;;;8.60;4.68;;;;;;;13.38;100.00;97376.75;4981137;28;20117;-80
2024/02/25 02:16:39;;;;;;;8.98;4.75;;;;;;;13.34;100.00;97377.97;4930654;29;20087;-79
2024/02/25 02:20:18;;;;;;;7.28;4.55;;;;;;;13.41;100.00;97383.75;4958516;28;20129;-80
2024/02/25 02:27:44;;;;;;;7.03;4.03;;;;;;;13.40;100.00;97374.81;4989050;28;20077;-79
2024/02/25 02:34:53;;;;;;;7.30;4.63;;;;;;;13.45;100.00;97380.69;5013747;28;20468;-80
2024/02/25 02:38:37;;;;;;;8.07;4.78;;;;;;;13.46;100.00;97387.78;5016879;28;20089;-81
2024/02/25 02:42:03;;;;;;;7.35;4.20;;;;;;;13.43;100.00;97397.91;5016034;28;20033;-80
2024/02/25 02:49:06;;;;;;;9.57;4.97;;;;;;;13.23;100.00;97391.34;5028759;28;20481;-78
2024/02/25 02:52:53;;;;;;;10.15;4.80;;;;;;;13.20;100.00;97401.44;5031187;28;20045;-79
2024/02/25 02:56:19;;;;;;;8.15;4.78;;;;;;;13.21;100.00;97387.91;5093270;28;20369;-80
2024/02/25 02:59:49;;;;;;;11.50;4.80;;;;;;;13.21;100.00;97389.75;5095858;28;20511;-80
2024/02/25 03:06:50;;;;;;;8.10;5.20;;;;;;;13.08;100.00;97387.09;5100543;28;20542;-79
2024/02/25 03:10:40;;;;;;;9.48;5.22;;;;;;;13.09;100.00;97393.34;5082169;28;20039;-79
2024/02/25 03:14:09;;;;;;;8.93;4.70;;;;;;;13.07;100.00;97397.94;5064777;28;20047;-79
2024/02/25 03:17:48;;;;;;;7.65;4.43;;;;;;;13.14;100.00;97391.16;5106900;28;20088;-79
2024/02/25 03:20:41;;;;;;;9.15;4.32;;;;;;;13.21;100.00;97400.47;5011281;28;20049;-80
2024/02/25 03:24:06;;;;;;;7.57;4.35;;;;;;;13.22;100.00;97400.38;4998488;28;20184;-80
2024/02/25 03:27:50;;;;;;;13.13;5.03;;;;;;;13.24;100.00;97392.19;5011510;28;20545;-80
2024/02/25 03:31:09;;;;;;;10.63;4.28;;;;;;;13.27;100.00;97384.75;5005183;28;20045;-80
2024/02/25 03:34:47;;;;;;;10.05;4.85;;;;;;;13.35;100.00;97387.72;4946164;28;20170;-80
2024/02/25 03:37:35;;;;;;;11.50;5.20;;;;;;;13.41;100.00;97387.25;5011357;28;20073;-80
2024/02/25 03:41:03;;;;;;;8.77;5.05;;;;;;;13.45;100.00;97383.38;5011395;28;20513;-79
2024/02/25 03:48:03;;;;;;;10.15;5.43;;;;;;;13.79;100.00;97380.78;4972426;28;20041;-80
2024/02/25 03:51:20;;;;;;;5.72;4.15;;;;;;;13.78;100.00;97369.16;4956730;28;20092;-80
2024/02/25 03:54:51;;;;;;;6.13;3.85;;;;;;;13.83;100.00;97379.56;4933313;29;20526;-80
2024/02/25 03:58:18;;;;;;;5.07;3.42;;;;;;;13.95;100.00;97367.84;4891832;29;20108;-80
2024/02/25 04:01:53;;;;;;;4.90;2.50;;;;;;;14.03;100.00;97362.72;4930872;29;20043;-80
2024/02/25 04:05:26;;;;;;;3.28;2.28;;;;;;;14.34;100.00;97362.03;4925042;29;20039;-80
2024/02/25 04:09:05;;;;;;;7.50;2.28;;;;;;;14.59;100.00;97353.72;4905255;29;20151;-80
2024/02/25 04:12:27;;;;;;;3.85;2.25;;;;;;;14.78;100.00;97366.53;4903434;29;20087;-79
2024/02/25 04:19:17;;;;;;;5.07;2.28;;;;;;;14.88;100.00;97372.88;4935178;28;20137;-80
2024/02/25 04:22:27;;;;;;;;;;;;;;;14.81;100.00;97385.13;4933344;29;20031;-80
2024/02/25 04:26:11;;;;;;;5.13;2.65;;;;;;;14.68;100.00;97375.47;4946052;28;20406;-80
2024/02/25 04:29:45;;;;;;;7.88;4.05;;;;;;;14.63;100.00;97384.78;4959711;28;20030;-79
2024/02/25 04:32:52;;;;;;;5.97;2.65;;;;;;;14.61;100.00;97399.38;4964199;28;20121;-80
2024/02/25 04:40:05;;;;;;;5.38;2.60;;;;;;;14.59;100.00;97391.41;4984301;28;20038;-80
2024/02/25 04:47:20;;;;;;;3.25;2.58;;;;;;;14.38;100.00;97400.34;4990754;28;20076;-79
2024/02/25 04:50:49;;;;;;;6.07;2.85;;;;;;;14.36;100.00;97405.84;4985874;28;20580;-79
2024/02/25 04:53:59;;;;;;;4.32;2.63;;;;;;;14.32;100.00;97412.41;4989789;28;20042;-79
2024/02/25 04:57:24;;;;;;;4.55;2.88;;;;;;;14.33;100.00;97408.78;4970810;28;20042;-80
2024/02/25 05:07:45;;;;;;;6.63;3.80;;;;;;;14.27;100.00;97411.06;5029456;28;20049;-80
2024/02/25 05:14:46;;;;;;;4.95;2.95;;;;;;;14.09;100.00;97424.09;4990431;28;20160;-80
2024/02/25 05:17:53;;;;;;;;;;;;;;;14.01;100.00;97421.16;4931194;29;20046;-80
2024/02/25 05:21:34;;;;;;;6.82;3.80;;;;;;;13.86;100.00;97428.59;4931744;29;20327;-80
2024/02/25 05:25:07;;;;;;;16.75;7.57;;;;;;;13.81;100.00;97421.88;4915046;29;20465;-80
2024/02/25 05:28:39;;;;;;;11.55;6.88;;;;;;;13.83;100.00;97433.34;4931505;29;20535;-80
2024/02/25 05:32:09;;;;;;;4.97;3.00;;;;;;;13.78;100.00;97425.63;4890940;29;20108;-80
2024/02/25 05:35:45;;;;;;;5.78;3.47;;;;;;;13.78;100.00;97432.84;4894594;29;20035;-80
2024/02/25 05:39:19;;;;;;;4.13;2.90;;;;;;;13.79;100.00;97429.16;4894588;29;20040;-80
2024/02/25 05:42:51;;;;;;;4.78;3.10;;;;;;;13.78;100.00;97436.38;4887256;29;20116;-81
2024/02/25 05:46:22;;;;;;;6.28;3.42;;;;;;;13.81;100.00;97429.94;4856437;29;20592;-81
2024/02/25 05:49:51;;;;;;;9.32;4.05;;;;;;;13.63;100.00;97415.22;4829445;29;20435;-80
2024/02/25 05:53:23;;;;;;;5.47;3.70;;;;;;;13.67;100.00;97452.47;4836485;29;20525;-79
2024/02/25 06:00:19;;;;;;;3.95;3.00;;;;;;;13.61;100.00;97446.69;4857073;29;20506;-81
2024/02/25 06:03:55;;;;;;;7.13;3.83;;;;;;;13.64;100.00;97449.16;4840631;29;20450;-81
2024/02/25 06:07:22;;;;;;;6.22;2.83;;;;;;;13.60;100.00;97442.31;4837446;29;20050;-80
2024/02/25 06:11:02;;;;;;;5.80;3.80;;;;;;;13.60;100.00;97455.75;4844461;29;20093;-80
2024/02/25 06:14:33;;;;;;;5.30;2.78;;;;;;;13.77;100.00;97449.94;4821765;29;20034;-80
2024/02/25 06:17:44;;;;;;;4.10;2.67;;;;;;;13.80;100.00;97442.50;4856156;29;20115;-79
2024/02/25 06:24:52;;;;;;;4.63;3.08;;;;;;;13.92;100.00;97438.00;4875690;29;20093;-79
2024/02/25 06:31:52;;;;;;;5.97;3.25;;;;;;;14.02;100.00;97447.09;4861477;29;20048;-74
2024/02/25 06:34:49;;;;;;;7.57;4.22;;;;;;;14.03;100.00;97440.72;4860373;29;20044;-74
2024/02/25 06:38:22;;;;;;;12.82;5.30;;;;;;;14.04;100.00;97442.44;4916435;29;20047;-74
2024/02/25 06:41:56;;;;;;;42.15;20.48;;;;;;;14.11;100.00;97447.25;4913623;29;20043;-74
2024/02/25 06:45:22;;;;;;;86.60;38.08;;;;;;;14.11;100.00;97443.69;4977069;28;20038;-74
2024/02/25 06:48:53;;;;;;;21.98;11.27;;;;;;;13.88;100.00;97447.28;4992010;28;20074;-73
2024/02/25 06:52:28;;;;;;;15.48;9.23;;;;;;;13.87;100.00;97453.66;4996499;28;20040;-74
2024/02/25 06:56:03;;;;;;;13.30;6.95;;;;;;;13.89;100.00;97455.25;4988002;28;20061;-73
2024/02/25 06:59:40;;;;;;;14.20;6.88;;;;;;;13.80;100.00;97458.63;4953418;29;20141;-74
2024/02/25 07:03:26;;;;;;;15.88;8.00;;;;;;;13.85;100.00;97448.38;4939846;28;20186;-74
2024/02/25 07:07:07;;;;;;;10.63;6.20;;;;;;;14.01;100.00;97448.06;4931718;29;20114;-73
2024/02/25 07:10:36;;;;;;;17.08;5.88;;;;;;;14.29;100.00;97441.38;4971365;28;20056;-73
2024/02/25 07:14:10;;;;;;;7.82;4.45;;;;;;;14.49;100.00;97441.56;4915676;29;20064;-74
2024/02/25 07:17:35;;;;;;;8.13;5.18;;;;;;;14.68;100.00;97438.25;4923406;29;20087;-75
2024/02/25 07:31:30;;;;;;;12.63;6.68;;;;;;;14.82;100.00;97440.72;5011357;28;20095;-75
2024/02/25 07:34:54;;;;;;;15.27;6.65;;;;;;;14.97;100.00;97452.06;4861752;29;20040;-76
2024/02/25 07:38:26;;;;;;;19.77;10.68;;;;;;;14.75;100.00;97438.63;4930660;29;20036;-76
2024/02/25 07:41:53;;;;;;;15.23;6.93;;;;;;;14.82;100.00;97435.31;4912408;29;20044;-78
2024/02/25 07:45:19;;;;;;;27.52;15.30;;;;;;;14.71;100.00;97448.78;4868066;29;20095;-82
2024/02/25 07:48:46;;;;;;;20.05;8.20;;;;;;;14.88;100.00;97425.88;4875002;29;20072;-80
2024/02/25 07:52:12;;;;;;;15.35;8.30;;;;;;;14.98;100.00;97438.47;4864364;29;20042;-80
2024/02/25 07:55:43;;;;;;;14.63;7.45;;;;;;;15.16;100.00;97425.34;4874619;29;20087;-81
2024/02/25 07:59:18;;;;;;;13.98;7.18;;;;;;;15.25;100.00;97421.91;4881326;29;20098;-82
2024/02/25 08:02:53;;;;;;;11.65;6.15;;;;;;;15.25;100.00;97413.81;4884333;29;20048;-80
2024/02/25 08:10:02;;;;;;;10.68;6.53;;;;;;;15.40;100.00;97412.53;4931075;29;20053;-75
2024/02/25 08:12:55;;;;;;;16.15;8.40;;;;;;;15.42;100.00;97409.69;4933958;29;20168;-75
2024/02/25 08:20:09;;;;;;;14.43;7.05;;;;;;;15.58;100.00;97415.56;4928354;29;20123;-75
2024/02/25 08:23:46;;;;;;;23.13;11.07;;;;;;;15.31;100.00;97426.78;4921137;29;20036;-75
2024/02/25 08:27:16;;;;;;;31.98;14.70;;;;;;;15.33;100.00;97419.41;4913393;29;20043;-75
2024/02/25 08:34:15;;;;;;;28.52;13.15;;;;;;;15.30;100.00;97416.09;4931285;29;20109;-75
2024/02/25 08:37:52;;;;;;;22.13;9.60;;;;;;;15.37;100.00;97410.09;4931092;29;20050;-76
2024/02/25 08:41:18;;;;;;;35.75;8.73;;;;;;;15.29;100.00;97404.47;4938743;29;20078;-76
2024/02/25 08:44:48;;;;;;;42.33;16.88;;;;;;;15.58;100.00;97396.69;4958041;28;20054;-74
2024/02/25 08:48:01;;;;;;;24.73;12.13;;;;;;;15.44;100.00;97397.78;5021137;28;20517;-75
2024/02/25 08:51:14;;;;;;;25.15;8.38;;;;;;;15.70;100.00;97396.50;4987881;28;20073;-74
2024/02/25 08:54:40;;;;;;;16.48;7.63;;;;;;;16.08;100.00;97392.38;4951200;28;20027;-75
2024/02/25 08:58:14;;;;;;;13.07;6.97;;;;;;;16.15;100.00;97385.47;4949311;28;20043;-75
2024/02/25 09:08:48;;;;;;;12.80;4.97;;;;;;;16.39;100.00;97377.06;4969880;28;20116;-75
2024/02/25 09:12:05;;;;;;;17.67;6.80;;;;;;;16.66;100.00;97366.53;4936568;29;20039;-76
2024/02/25 09:15:21;;;;;;;15.45;7.50;;;;;;;16.67;100.00;97360.97;4960063;28;20038;-76
2024/02/25 09:18:47;;;;;;;21.05;7.20;;;;;;;17.06;100.00;97361.94;4958547;28;20035;-76
2024/02/25 09:22:16;;;;;;;12.10;6.20;;;;;;;17.39;100.00;97360.69;4951585;28;20039;-75
2024/02/25 09:25:53;;;;;;;10.20;3.63;;;;;;;17.72;100.00;97333.22;4955877;28;20117;-75
2024/02/25 09:29:08;;;;;;;9.10;4.65;;;;;;;17.32;100.00;97335.22;4929242;29;20052;-75
2024/02/25 09:35:38;;;;;;;11.60;5.97;;;;;;;17.52;100.00;97341.47;4921138;29;20107;-75
2024/02/25 09:39:03;;;;;;;5.63;2.42;;;;;;;17.19;100.00;97327.41;4928051;29;20158;-76
2024/02/25 09:42:30;;;;;;;4.00;2.47;;;;;;;16.59;100.00;97327.56;4927561;29;20491;-76
2024/02/25 09:46:14;;;;;;;3.50;2.22;;;;;;;16.42;100.00;97328.19;4911015;29;20070;-73
2024/02/25 09:49:30;;;;;;;4.80;2.80;;;;;;;16.39;100.00;97323.91;4910832;29;20545;-74
2024/02/25 09:56:27;;;;;;;6.50;2.50;;;;;;;16.29;100.00;97317.63;4937250;29;20070;-74
2024/02/25 10:00:02;;;;;;;7.70;3.78;;;;;;;16.35;100.00;97317.06;4922895;29;20032;-74
2024/02/25 10:03:32;;;;;;;20.08;10.18;;;;;;;16.53;100.00;97307.31;4919542;28;20568;-75
2024/02/25 10:06:49;;;;;;;9.55;3.30;;;;;;;16.60;100.00;97303.13;4974679;28;20477;-74
2024/02/25 10:10:23;;;;;;;12.05;4.45;;;;;;;16.69;100.00;97282.53;5003569;28;20087;-74
2024/02/25 10:13:46;;;;;;;8.00;2.90;;;;;;;16.69;100.00;97288.78;5044054;28;20025;-74
2024/02/25 10:17:20;;;;;;;9.90;3.10;;;;;;;16.78;99.76;97285.25;5046998;28;20041;-74
2024/02/25 10:20:47;;;;;;;9.98;3.50;;;;;;;17.06;96.19;97282.72;5014621;28;20116;-74
2024/02/25 10:24:19;;;;;;;7.75;3.47;;;;;;;17.35;88.62;97270.03;5005845;28;20034;-75
2024/02/25 10:27:55;;;;;;;9.50;3.63;;;;;;;17.35;87.97;97264.63;5018189;28;20033;-75
2024/02/25 10:31:27;;;;;;;11.93;2.90;;;;;;;17.44;86.30;97254.81;4913795;29;20123;-73
2024/02/25 10:34:56;;;;;;;5.80;2.92;;;;;;;17.57;86.48;97258.94;4875793;29;20040;-74
2024/02/25 10:38:19;;;;;;;6.07;2.95;;;;;;;17.83;81.70;97248.34;4891767;29;20044;-74
2024/02/25 10:41:47;;;;;;;7.83;3.50;;;;;;;17.98;79.00;97235.19;4876097;29;20615;-74
2024/02/25 10:45:25;;;;;;;2.80;1.75;;;;;;;18.32;77.24;97244.44;4885069;29;20516;-73
2024/02/25 10:48:58;;;;;;;5.13;2.40;;;;;;;18.36;75.66;97235.03;4870957;29;20056;-73
2024/02/25 10:52:29;;;;;;;7.40;2.53;;;;;;;18.66;76.86;97248.28;4894284;29;20041;-73
2024/02/25 10:56:16;;;;;;;4.78;2.17;;;;;;;19.19;69.75;97226.63;4938153;29;20135;-74
2024/02/25 10:59:47;;;;;;;6.63;3.03;;;;;;;19.25;71.72;97231.41;4922182;29;20043;-74
2024/02/25 11:03:22;;;;;;;3.05;2.03;;;;;;;19.65;67.12;97216.50;4931554;29;20055;-74
2024/02/25 11:07:02;;;;;;;3.92;2.92;;;;;;;19.57;65.19;97214.56;4903273;29;20063;-74
2024/02/25 11:10:29;;;;;;;2.40;2.00;;;;;;;19.57;65.74;97203.72;4920674;29;20088;-74
2024/02/25 11:13:56;;;;;;;5.68;2.05;;;;;;;19.59;65.58;97199.00;4905342;29;20059;-74
2024/02/25 11:17:27;;;;;;;4.25;2.83;;;;;;;19.97;65.80;97198.53;4941399;29;20035;-74
2024/02/25 11:20:52;;;;;;;9.68;3.40;;;;;;;20.32;62.86;97183.09;4930812;29;20023;-74
2024/02/25 11:24:52;;;;;;;6.90;4.20;;;;;;;20.57;62.47;97176.72;4971501;28;20041;-74
2024/02/25 11:28:38;;;;;;;3.67;2.67;;;;;;;20.67;59.63;97196.47;4922019;29;20066;-75
2024/02/25 11:31:49;;;;;;;4.10;2.85;;;;;;;20.44;60.35;97179.91;4939923;29;20702;-75
2024/02/25 11:35:15;;;;;;;3.58;2.60;;;;;;;20.50;58.59;97168.38;4944544;29;20510;-75
2024/02/25 11:38:34;;;;;;;5.10;3.90;;;;;;;20.46;59.83;97177.03;4933340;29;20043;-75
2024/02/25 11:41:54;;;;;;;5.30;3.65;;;;;;;20.59;59.42;97169.25;4945655;28;20092;-74
2024/02/25 11:48:18;;;;;;;6.57;4.63;;;;;;;20.85;58.83;97161.84;4968163;28;20462;-75
2024/02/25 11:51:44;;;;;;;4.95;3.28;;;;;;;20.77;58.52;97159.09;4974344;28;20077;-75
2024/02/25 11:54:49;;;;;;;4.53;3.30;;;;;;;19.94;62.46;97160.84;5000837;28;20144;-75
2024/02/25 11:58:27;;;;;;;6.60;3.13;;;;;;;19.44;65.67;97158.00;4993143;28;20053;-75
2024/02/25 12:01:50;;;;;;;4.65;3.22;;;;;;;19.52;68.78;97154.50;5015377;28;20030;-74
2024/02/25 12:12:02;;;;;;;4.78;3.15;;;;;;;19.09;73.50;97152.63;5013697;28;20075;-75
2024/02/25 12:15:29;;;;;;;4.00;2.90;;;;;;;18.84;78.14;97159.72;4990818;28;20092;-74
2024/02/25 12:19:02;;;;;;;6.88;4.15;;;;;;;18.91;77.28;97149.97;4939407;29;20086;-75
2024/02/25 12:21:52;;;;;;;7.43;4.13;;;;;;;18.87;79.16;97148.56;4961911;28;20053;-75
2024/02/25 12:25:00;;;;;;;4.55;2.90;;;;;;;18.91;77.76;97143.69;5009114;28;20194;-75
2024/02/25 12:28:31;;;;;;;5.05;3.22;;;;;;;18.81;81.48;97137.47;5025681;28;20047;-73
2024/02/25 12:34:46;;;;;;;11.38;3.85;;;;;;;18.53;84.08;97127.72;5024227;28;20099;-73
2024/02/25 12:40:45;;;;;;;35.45;13.90;;;;;;;18.41;85.14;97129.78;5018104;28;20481;-74
2024/02/25 12:44:12;;;;;;;44.75;18.60;;;;;;;18.12;88.64;97137.25;4996055;28;20538;-73
2024/02/25 12:47:22;;;;;;;23.08;12.32;;;;;;;17.84;90.21;97137.25;5026340;28;20188;-74
2024/02/25 12:50:52;;;;;;;12.55;7.22;;;;;;;17.74;93.61;97127.47;5020438;28;20034;-75
2024/02/25 12:53:39;;;;;;;8.43;4.25;;;;;;;17.44;96.71;97136.69;5039729;28;20112;-74
2024/02/25 12:56:55;;;;;;;13.98;8.27;;;;;;;17.26;98.74;97138.41;5083225;28;20039;-75
2024/02/25 12:59:59;;;;;;;7.03;4.03;;;;;;;17.14;100.00;97136.88;5096826;28;20422;-75
2024/02/25 13:03:07;;;;;;;10.02;6.05;;;;;;;17.15;100.00;97134.06;5080428;28;20031;-74
2024/02/25 13:06:42;;;;;;;8.20;5.35;;;;;;;17.12;100.00;97133.50;5104553;28;20052;-75
2024/02/25 13:10:05;;;;;;;8.60;4.75;;;;;;;17.19;100.00;97129.22;5100279;28;20035;-75
2024/02/25 13:12:53;;;;;;;6.82;4.20;;;;;;;17.38;98.23;97118.31;5077157;28;20047;-75
2024/02/25 13:16:00;;;;;;;6.43;4.05;;;;;;;17.51;96.58;97128.81;5093672;28;20089;-75
2024/02/25 13:18:46;;;;;;;10.25;5.00;;;;;;;17.55;96.23;97127.56;5087447;28;20045;-75
2024/02/25 13:21:39;;;;;;;6.18;3.83;;;;;;;17.57;94.95;97118.28;5076221;28;20047;-75
2024/02/25 13:24:12;;;;;;;8.93;5.10;;;;;;;17.71;93.14;97119.66;5089846;28;21994;-75
2024/02/25 13:27:03;;;;;;;7.10;4.35;;;;;;;17.63;91.80;97111.44;5075417;28;20142;-74
2024/02/25 13:29:42;;;;;;;6.90;3.95;;;;;;;17.56;91.04;97105.78;5089101;28;20526;-74
2024/02/25 13:32:49;;;;;;;8.48;4.50;;;;;;;17.45;93.84;97102.38;5075067;28;20107;-75
2024/02/25 13:35:49;;;;;;;8.77;4.45;;;;;;;17.53;94.52;97121.44;5098575;28;20024;-75
2024/02/25 13:38:40;;;;;;;13.63;4.72;;;;;;;17.51;94.52;97115.28;5069712;28;20043;-74
2024/02/25 13:41:29;;;;;;;9.02;3.97;;;;;;;17.47;92.58;97103.94;5065903;28;20050;-75
2024/02/25 13:44:17;;;;;;;9.05;4.43;;;;;;;17.59;93.33;97110.03;5070521;28;20043;-75
2024/02/25 13:47:07;;;;;;;5.65;3.95;;;;;;;17.72;92.18;97115.94;5080855;28;20097;-75
2024/02/25 13:49:41;;;;;;;7.03;4.38;;;;;;;17.73;91.20;97106.84;5088932;28;20108;-74
2024/02/25 13:52:33;;;;;;;6.32;4.40;;;;;;;17.83;89.87;97097.69;5075248;28;20104;-74
2024/02/25 13:55:26;;;;;;;7.63;4.35;;;;;;;17.88;89.45;97089.09;5062336;28;20036;-74
2024/02/25 13:58:13;;;;;;;5.72;3.95;;;;;;;17.75;90.50;97091.28;5088068;28;20063;-75
2024/02/25 14:00:42;;;;;;;7.97;4.95;;;;;;;17.97;90.11;97087.31;5092820;28;20442;-75
2024/02/25 14:04:04;;;;;;;11.98;5.80;;;;;;;18.00;90.86;97087.88;5074566;28;20568;-75
2024/02/25 14:06:51;;;;;;;7.05;4.32;;;;;;;17.94;93.81;97069.53;5069021;28;20036;-74
2024/02/25 14:09:39;;;;;;;6.20;4.00;;;;;;;17.95;92.95;97059.56;5074904;28;20044;-74
2024/02/25 14:12:12;;;;;;;7.68;5.53;;;;;;;18.03;92.36;97057.78;5072069;28;20028;-74
2024/02/25 14:15:01;;;;;;;10.93;6.22;;;;;;;17.88;92.49;97053.91;5061634;28;20021;-75
2024/02/25 14:17:27;;;;;;;9.60;3.97;;;;;;;17.87;92.93;97055.75;5044849;28;20060;-73
2024/02/25 14:20:10;;;;;;;9.75;5.28;;;;;;;17.93;92.41;97048.06;5062877;28;20455;-75
2024/02/25 14:22:53;;;;;;;8.77;5.00;;;;;;;18.24;90.58;97025.84;5057143;28;20097;-75
2024/02/25 14:25:20;;;;;;;22.85;11.95;;;;;;;18.81;83.93;97029.94;5051153;28;20044;-75
2024/02/25 14:28:10;;;;;;;13.95;9.07;;;;;;;19.33;80.24;97024.47;5063159;28;20037;-74
2024/02/25 14:30:58;;;;;;;12.15;6.78;;;;;;;19.96;72.44;97008.66;5062758;28;20408;-74
2024/02/25 14:33:46;;;;;;;13.95;7.82;;;;;;;20.19;69.17;97006.97;5054995;28;20115;-75
2024/02/25 14:36:15;;;;;;;8.60;4.47;;;;;;;20.07;68.72;97002.03;5055712;28;20411;-75
2024/02/25 14:39:20;;;;;;;13.80;7.68;;;;;;;20.13;67.42;97001.38;5069263;28;20041;-76
2024/02/25 14:42:50;;;;;;;9.30;4.97;;;;;;;19.53;70.97;97015.13;5057535;28;20024;-75
2024/02/25 14:45:36;;;;;;;7.65;4.72;;;;;;;19.01;77.14;97014.28;5073229;28;20492;-76
2024/02/25 14:48:42;;;;;;;7.20;4.20;;;;;;;18.55;82.08;97020.91;5041691;28;20408;-75
2024/02/25 14:51:32;;;;;;;10.32;5.05;;;;;;;18.18;86.88;97020.25;5058504;28;20035;-76
2024/02/25 14:54:37;;;;;;;15.52;7.47;;;;;;;17.89;87.36;97020.44;5078707;28;20020;-76
2024/02/25 14:57:24;;;;;;;12.13;7.18;;;;;;;17.46;86.47;97018.41;5093499;28;20114;-74
2024/02/25 15:00:12;;;;;;;14.00;7.70;;;;;;;17.28;88.00;97021.06;5075617;28;20408;-74
2024/02/25 15:03:19;;;;;;;15.52;9.13;;;;;;;17.07;87.50;97015.00;5081118;28;20040;-75
2024/02/25 15:06:03;;;;;;;11.85;6.20;;;;;;;16.92;90.74;97007.56;5067002;28;20094;-75
2024/02/25 15:08:42;;;;;;;10.85;6.38;;;;;;;16.79;92.87;97007.88;5075606;28;20491;-75
2024/02/25 15:11:31;;;;;;;7.55;5.10;;;;;;;16.63;92.94;97021.97;5078006;28;20051;-77
2024/02/25 15:14:29;;;;;;;9.02;5.03;;;;;;;16.59;94.07;97017.84;5078105;28;20035;-75
2024/02/25 15:17:22;;;;;;;12.10;7.60;;;;;;;16.51;95.39;97014.16;5093335;28;20024;-76
2024/02/25 15:20:18;;;;;;;11.63;6.03;;;;;;;16.42;97.18;97015.88;5092262;28;20556;-73
2024/02/25 15:23:24;;;;;;;14.20;9.00;;;;;;;16.35;98.53;97008.47;5072117;28;20027;-75
2024/02/25 15:26:31;;;;;;;15.85;9.63;;;;;;;16.26;99.54;97010.19;5111512;28;20495;-75
2024/02/25 15:29:27;;;;;;;15.88;7.68;;;;;;;16.24;100.00;97013.03;5108008;28;20039;-76
2024/02/25 15:32:37;;;;;;;13.05;7.97;;;;;;;16.11;100.00;97012.47;5095122;28;20040;-75
2024/02/25 15:35:14;;;;;;;24.15;11.50;;;;;;;16.04;100.00;97011.34;5061071;28;20040;-76
2024/02/25 15:38:00;;;;;;;34.78;11.40;;;;;;;15.95;100.00;97009.50;5078230;28;20032;-75
2024/02/25 15:40:49;;;;;;;34.45;13.95;;;;;;;15.90;100.00;97019.00;5060604;28;20135;-75
2024/02/25 15:43:44;;;;;;;37.58;13.10;;;;;;;15.80;100.00;97010.03;5077294;28;20060;-75
2024/02/25 15:46:37;;;;;;;11.20;5.68;;;;;;;15.70;100.00;97007.31;5094642;28;20035;-74
2024/02/25 15:49:24;;;;;;;13.02;8.15;;;;;;;15.65;100.00;97015.84;5096733;28;20490;-76
2024/02/25 15:51:50;;;;;;;23.63;10.15;;;;;;;15.64;100.00;97011.44;5093360;28;20020;-76
2024/02/25 15:54:36;;;;;;;24.00;10.05;;;;;;;15.54;100.00;97007.88;5078520;28;20031;-75
2024/02/25 15:57:12;;;;;;;24.95;10.25;;;;;;;15.46;100.00;97017.59;5089063;28;20524;-76
2024/02/25 16:00:09;;;;;;;20.15;9.02;;;;;;;15.40;100.00;97015.47;5109701;28;20054;-74
2024/02/25 16:02:52;;;;;;;25.33;10.20;;;;;;;15.31;100.00;97009.06;5095818;28;20034;-76
2024/02/25 16:05:38;;;;;;;19.05;8.77;;;;;;;15.29;100.00;97013.72;5077692;28;20027;-76
2024/02/25 16:08:28;;;;;;;15.50;8.85;;;;;;;15.24;100.00;97015.97;5095857;28;20052;-75
2024/02/25 16:11:18;;;;;;;13.65;7.38;;;;;;;15.15;100.00;97014.97;5099696;28;20028;-75
2024/02/25 16:13:50;;;;;;;13.63;7.25;;;;;;;15.10;100.00;97013.69;5094435;28;20082;-76
2024/02/25 16:16:27;;;;;;;13.35;7.88;;;;;;;15.07;100.00;97016.63;5111767;28;20043;-75
2024/02/25 16:19:21;;;;;;;22.35;10.40;;;;;;;14.98;100.00;97020.16;5063337;28;20051;-75
2024/02/25 16:22:06;;;;;;;15.85;7.68;;;;;;;14.91;100.00;97013.59;5076489;28;20036;-74
2024/02/25 16:24:36;;;;;;;13.70;6.97;;;;;;;14.91;100.00;97014.44;5032767;28;20532;-75
2024/02/25 16:27:57;;;;;;;18.10;7.88;;;;;;;14.83;100.00;97027.69;5049227;28;20043;-74
2024/02/25 16:30:25;;;;;;;8.85;5.68;;;;;;;14.87;100.00;97033.69;5041114;28;20085;-75
2024/02/25 16:33:13;;;;;;;13.35;6.95;;;;;;;14.82;100.00;97036.78;5013557;28;20041;-73
2024/02/25 16:35:59;;;;;;;10.80;6.05;;;;;;;14.81;100.00;97037.75;5046167;28;20477;-72
2024/02/25 16:38:31;;;;;;;8.48;5.60;;;;;;;14.74;100.00;97035.72;5046182;28;20045;-72
2024/02/25 16:41:38;;;;;;;16.80;9.38;;;;;;;14.77;100.00;97040.84;5032115;28;20071;-73
2024/02/25 16:44:13;;;;;;;20.02;12.02;;;;;;;14.76;100.00;97049.94;5013068;28;20053;-73
2024/02/25 16:46:44;;;;;;;25.13;11.18;;;;;;;14.74;100.00;97050.03;5014681;28;20213;-72
2024/02/25 16:49:36;;;;;;;31.17;12.68;;;;;;;14.69;100.00;97048.75;5019932;28;20037;-72
2024/02/25 16:52:25;;;;;;;13.65;7.95;;;;;;;14.67;100.00;97051.59;5046308;28;20485;-73
2024/02/25 16:54:52;;;;;;;13.97;6.83;;;;;;;14.62;100.00;97046.56;5026821;28;20526;-77
2024/02/25 16:57:41;;;;;;;11.10;6.15;;;;;;;14.58;100.00;97055.06;5080202;28;20273;-72
2024/02/25 17:00:27;;;;;;;12.00;6.13;;;;;;;14.46;100.00;97056.09;5079302;28;20047;-72
2024/02/25 17:03:04;;;;;;;10.13;5.18;;;;;;;14.36;100.00;97056.03;5107655;28;20051;-73
2024/02/25 17:05:41;;;;;;;12.20;6.55;;;;;;;14.27;100.00;97061.31;5078557;28;20060;-72
2024/02/25 17:08:15;;;;;;;15.88;8.40;;;;;;;14.19;100.00;97069.16;5064694;28;20063;-72
2024/02/25 17:11:05;;;;;;;19.02;8.45;;;;;;;14.10;100.00;97044.75;5079648;28;20036;-78